Time,TemperatureF,DewpointF,PressureIn,WindDirection,WindDirectionDegrees,WindSpeedMPH,WindSpeedGustMPH,Humidity,HourlyPrecipIn,Conditions,Clouds,dailyrainin,SoftwareType,DateUTC
2013-03-12 00:04:00,41.0,35.3,29.74,SSE,157,4.0,-999.0,80,-99.99,,,0.00,Acu-Link.com,2013-03-12 04:04:00,
2013-03-12 00:19:00,41.0,35.3,29.75,WSW,247,3.1,-999.0,80,-99.99,,,0.00,Acu-Link.com,2013-03-12 04:19:00,
2013-03-12 00:34:00,41.0,35.0,29.75,NNW,337,7.2,-999.0,79,-99.99,,,0.00,Acu-Link.com,2013-03-12 04:34:00,
2013-03-12 00:49:00,39.2,34.2,29.75,WNW,292,2.7,-999.0,82,-99.99,,,0.00,Acu-Link.com,2013-03-12 04:49:00,
2013-03-12 01:04:00,39.2,33.6,29.76,ESE,112,4.7,-999.0,80,-99.99,,,0.00,Acu-Link.com,2013-03-12 05:04:00,
2013-03-12 01:19:00,39.2,32.6,29.76,NE,45,4.0,-999.0,77,-99.99,,,0.00,Acu-Link.com,2013-03-12 05:19:00,
2013-03-12 01:34:00,37.4,30.9,29.76,SSW,202,10.3,-999.0,77,-99.99,,,0.00,Acu-Link.com,2013-03-12 05:34:00,
2013-03-12 01:50:00,37.4,30.9,29.76,WNW,292,5.6,-999.0,77,-99.99,,,0.00,Acu-Link.com,2013-03-12 05:50:00,
2013-03-12 02:05:00,37.4,30.9,29.77,SW,225,4.0,-999.0,77,-99.99,,,0.00,Acu-Link.com,2013-03-12 06:05:00,
2013-03-12 02:20:00,37.4,30.5,29.78,SW,225,6.3,-999.0,76,-99.99,,,0.00,Acu-Link.com,2013-03-12 06:20:00,
2013-03-12 02:35:00,37.4,30.2,29.78,WNW,292,3.6,-999.0,75,-99.99,,,0.00,Acu-Link.com,2013-03-12 06:35:00,
2013-03-12 02:50:00,37.4,30.9,29.78,NNW,337,2.0,-999.0,77,-99.99,,,0.00,Acu-Link.com,2013-03-12 06:50:00,
2013-03-12 03:05:00,37.4,31.2,29.79,SSW,202,1.6,-999.0,78,-99.99,,,0.00,Acu-Link.com,2013-03-12 07:05:00,
2013-03-12 03:20:00,37.4,30.9,29.79,SSW,202,2.0,-999.0,77,-99.99,,,0.00,Acu-Link.com,2013-03-12 07:20:00,
2013-03-12 03:35:00,37.4,30.9,29.80,West,270,4.0,-999.0,77,-99.99,,,0.00,Acu-Link.com,2013-03-12 07:35:00,
2013-03-12 03:50:00,37.4,31.2,29.79,South,180,2.7,-999.0,78,-99.99,,,0.00,Acu-Link.com,2013-03-12 07:50:00,
2013-03-12 04:05:00,37.4,30.5,29.80,WNW,292,3.1,-999.0,76,-99.99,,,0.00,Acu-Link.com,2013-03-12 08:05:00,
2013-03-12 04:20:00,37.4,30.5,29.80,SW,225,1.6,-999.0,76,-99.99,,,0.00,Acu-Link.com,2013-03-12 08:20:00,
2013-03-12 04:35:00,35.6,29.1,29.81,NNW,337,6.3,-999.0,77,-99.99,,,0.00,Acu-Link.com,2013-03-12 08:35:00,
2013-03-12 04:50:00,35.6,29.7,29.80,West,270,1.1,-999.0,79,-99.99,,,0.00,Acu-Link.com,2013-03-12 08:50:00,
2013-03-12 05:05:00,35.6,29.7,29.81,WNW,292,2.7,-999.0,79,-99.99,,,0.00,Acu-Link.com,2013-03-12 09:05:00,
2013-03-12 05:20:00,35.6,29.7,29.81,East,90,1.6,-999.0,79,-99.99,,,0.00,Acu-Link.com,2013-03-12 09:20:00,
2013-03-12 05:35:00,35.6,29.7,29.81,West,270,2.7,-999.0,79,-99.99,,,0.00,Acu-Link.com,2013-03-12 09:35:00,
2013-03-12 05:50:00,35.6,29.4,29.81,SSW,202,1.6,-999.0,78,-99.99,,,0.00,Acu-Link.com,2013-03-12 09:50:00,
2013-03-12 06:05:00,35.6,29.4,29.82,SE,135,2.7,-999.0,78,-99.99,,,0.00,Acu-Link.com,2013-03-12 10:05:00,
2013-03-12 06:20:00,35.6,29.7,29.82,West,270,1.6,-999.0,79,-99.99,,,0.00,Acu-Link.com,2013-03-12 10:20:00,
2013-03-12 06:35:00,35.6,29.4,29.82,SW,225,4.0,-999.0,78,-99.99,,,0.00,Acu-Link.com,2013-03-12 10:35:00,
2013-03-12 06:50:00,35.6,29.4,29.83,SW,225,3.6,-999.0,78,-99.99,,,0.00,Acu-Link.com,2013-03-12 10:50:00,
2013-03-12 07:05:00,35.6,29.7,29.84,WSW,247,4.0,-999.0,79,-99.99,,,0.00,Acu-Link.com,2013-03-12 11:05:00,
2013-03-12 07:36:00,35.6,30.1,29.84,SW,225,1.6,-999.0,80,-99.99,,,0.00,Acu-Link.com,2013-03-12 11:36:00,
2013-03-12 08:06:00,35.6,30.1,29.85,SSW,202,4.0,-999.0,80,-99.99,,,0.00,Acu-Link.com,2013-03-12 12:06:00,
2013-03-12 08:22:00,35.6,30.1,29.85,WSW,247,3.1,-999.0,80,-99.99,,,0.00,Acu-Link.com,2013-03-12 12:22:00,
2013-03-12 08:37:00,33.8,30.1,29.86,WNW,292,2.7,-999.0,86,-99.99,,,0.00,Acu-Link.com,2013-03-12 12:37:00,
2013-03-12 08:52:00,33.8,30.1,29.86,West,270,7.2,-999.0,86,-99.99,,,0.00,Acu-Link.com,2013-03-12 12:52:00,
2013-03-12 09:07:00,33.8,31.2,29.87,SW,225,1.6,-999.0,90,-99.99,,,0.00,Acu-Link.com,2013-03-12 13:07:00,
2013-03-12 09:22:00,33.8,30.9,29.87,ESE,112,2.0,-999.0,89,-99.99,,,0.00,Acu-Link.com,2013-03-12 13:22:00,
2013-03-12 09:37:00,33.8,30.3,29.87,SW,225,3.6,-999.0,87,-99.99,,,0.00,Acu-Link.com,2013-03-12 13:37:00,
2013-03-12 09:52:00,33.8,28.9,29.87,NNE,22,4.7,-999.0,82,-99.99,,,0.01,Acu-Link.com,2013-03-12 13:52:00,
2013-03-12 10:07:00,35.6,30.1,29.88,NNE,22,5.6,-999.0,80,-99.99,,,0.01,Acu-Link.com,2013-03-12 14:07:00,
2013-03-12 10:22:00,35.6,29.4,29.88,NNE,22,3.6,-999.0,78,-99.99,,,0.01,Acu-Link.com,2013-03-12 14:22:00,
2013-03-12 10:37:00,35.6,29.4,29.88,West,270,4.0,-999.0,78,-99.99,,,0.01,Acu-Link.com,2013-03-12 14:37:00,
2013-03-12 10:52:00,35.6,29.1,29.89,South,180,5.6,-999.0,77,-99.99,,,0.01,Acu-Link.com,2013-03-12 14:52:00,
2013-03-12 11:07:00,35.6,28.8,29.88,SW,225,1.6,-999.0,76,-99.99,,,0.01,Acu-Link.com,2013-03-12 15:07:00,
2013-03-12 11:22:00,35.6,29.1,29.88,ESE,112,3.1,-999.0,77,-99.99,,,0.01,Acu-Link.com,2013-03-12 15:22:00,
2013-03-12 11:37:00,35.6,29.4,29.88,SW,225,4.0,-999.0,78,-99.99,,,0.01,Acu-Link.com,2013-03-12 15:37:00,
2013-03-12 11:52:00,35.6,29.7,29.88,WSW,247,4.7,-999.0,79,-99.99,,,0.01,Acu-Link.com,2013-03-12 15:52:00,
2013-03-12 12:07:00,35.6,29.1,29.89,NW,315,7.2,-999.0,77,-99.99,,,0.01,Acu-Link.com,2013-03-12 16:07:00,
2013-03-12 12:22:00,35.6,29.4,29.89,WSW,247,3.6,-999.0,78,-99.99,,,0.01,Acu-Link.com,2013-03-12 16:22:00,
2013-03-12 12:37:00,35.6,30.4,29.89,WNW,292,4.0,-999.0,81,-99.99,,,0.01,Acu-Link.com,2013-03-12 16:37:00,
2013-03-12 12:53:00,35.6,31.3,29.89,West,270,2.7,-999.0,84,-99.99,,,0.01,Acu-Link.com,2013-03-12 16:53:00,
2013-03-12 13:08:00,35.6,31.8,29.89,South,180,1.1,-999.0,86,-99.99,,,0.01,Acu-Link.com,2013-03-12 17:08:00,
2013-03-12 13:23:00,35.6,30.4,29.88,SSW,202,3.1,-999.0,81,-99.99,,,0.01,Acu-Link.com,2013-03-12 17:23:00,
2013-03-12 13:38:00,37.4,31.2,29.89,NNW,337,1.6,-999.0,78,-99.99,,,0.01,Acu-Link.com,2013-03-12 17:38:00,
2013-03-12 13:53:00,37.4,30.2,29.89,WSW,247,2.0,-999.0,75,-99.99,,,0.01,Acu-Link.com,2013-03-12 17:53:00,
2013-03-12 14:08:00,37.4,30.5,29.89,SSW,202,2.0,-999.0,76,-99.99,,,0.01,Acu-Link.com,2013-03-12 18:08:00,
2013-03-12 14:23:00,37.4,30.5,29.89,WSW,247,2.0,-999.0,76,-99.99,,,0.01,Acu-Link.com,2013-03-12 18:23:00,
2013-03-12 14:38:00,39.2,30.3,29.89,SSW,202,6.7,-999.0,70,-99.99,,,0.01,Acu-Link.com,2013-03-12 18:38:00,
2013-03-12 14:53:00,37.4,29.6,29.88,SSW,202,2.7,-999.0,73,-99.99,,,0.01,Acu-Link.com,2013-03-12 18:53:00,
2013-03-12 15:08:00,37.4,28.5,29.88,West,270,5.6,-999.0,70,-99.99,,,0.01,Acu-Link.com,2013-03-12 19:08:00,
2013-03-12 15:23:00,37.4,29.2,29.88,SSW,202,3.6,-999.0,72,-99.99,,,0.01,Acu-Link.com,2013-03-12 19:23:00,
2013-03-12 15:38:00,35.6,27.8,29.89,West,270,3.1,-999.0,73,-99.99,,,0.01,Acu-Link.com,2013-03-12 19:38:00,
2013-03-12 15:53:00,35.6,27.8,29.89,SSW,202,3.6,-999.0,73,-99.99,,,0.01,Acu-Link.com,2013-03-12 19:53:00,
2013-03-12 16:08:00,35.6,28.8,29.89,SW,225,4.0,-999.0,76,-99.99,,,0.01,Acu-Link.com,2013-03-12 20:08:00,
2013-03-12 16:23:00,35.6,28.1,29.90,WNW,292,4.7,-999.0,74,-99.99,,,0.01,Acu-Link.com,2013-03-12 20:23:00,
2013-03-12 16:38:00,35.6,27.1,29.89,SW,225,5.1,-999.0,71,-99.99,,,0.01,Acu-Link.com,2013-03-12 20:38:00,
2013-03-12 16:53:00,35.6,27.1,29.90,West,270,5.6,-999.0,71,-99.99,,,0.01,Acu-Link.com,2013-03-12 20:53:00,
2013-03-12 17:08:00,35.6,26.8,29.89,SW,225,4.7,-999.0,70,-99.99,,,0.01,Acu-Link.com,2013-03-12 21:08:00,
2013-03-12 17:23:00,35.6,27.1,29.90,SSE,157,1.1,-999.0,71,-99.99,,,0.01,Acu-Link.com,2013-03-12 21:23:00,
2013-03-12 17:38:00,35.6,27.1,29.90,NW,315,2.0,-999.0,71,-99.99,,,0.01,Acu-Link.com,2013-03-12 21:38:00,
2013-03-12 17:53:00,35.6,27.8,29.91,ESE,112,4.0,-999.0,73,-99.99,,,0.01,Acu-Link.com,2013-03-12 21:53:00,
2013-03-12 18:08:00,35.6,28.1,29.91,West,270,5.6,-999.0,74,-99.99,,,0.01,Acu-Link.com,2013-03-12 22:08:00,
2013-03-12 18:23:00,35.6,28.5,29.92,SW,225,2.0,-999.0,75,-99.99,,,0.01,Acu-Link.com,2013-03-12 22:23:00,
2013-03-12 18:38:00,35.6,28.5,29.92,West,270,3.1,-999.0,75,-99.99,,,0.01,Acu-Link.com,2013-03-12 22:38:00,
2013-03-12 18:53:00,35.6,28.1,29.92,SSE,157,4.0,-999.0,74,-99.99,,,0.01,Acu-Link.com,2013-03-12 22:53:00,
2013-03-12 19:09:00,33.8,26.1,29.93,SSE,157,4.0,-999.0,73,-99.99,,,0.01,Acu-Link.com,2013-03-12 23:09:00,
2013-03-12 19:24:00,33.8,26.7,29.93,West,270,2.0,-999.0,75,-99.99,,,0.01,Acu-Link.com,2013-03-12 23:24:00,
2013-03-12 19:39:00,33.8,26.4,29.95,WNW,292,2.0,-999.0,74,-99.99,,,0.01,Acu-Link.com,2013-03-12 23:39:00,
2013-03-12 19:54:00,33.8,26.4,29.95,ESE,112,2.0,-999.0,74,-99.99,,,0.01,Acu-Link.com,2013-03-12 23:54:00,
2013-03-12 20:09:00,33.8,26.7,29.95,WNW,292,2.7,-999.0,75,-99.99,,,0.01,Acu-Link.com,2013-03-13 00:09:00,
2013-03-12 20:24:00,33.8,26.4,29.95,SSW,202,3.1,-999.0,74,-99.99,,,0.01,Acu-Link.com,2013-03-13 00:24:00,
2013-03-12 20:39:00,33.8,27.1,29.96,West,270,2.0,-999.0,76,-99.99,,,0.01,Acu-Link.com,2013-03-13 00:39:00,
2013-03-12 20:54:00,33.8,27.4,29.96,West,270,0.0,-999.0,77,-99.99,,,0.01,Acu-Link.com,2013-03-13 00:54:00,
2013-03-12 21:09:00,33.8,27.1,29.97,ESE,112,1.1,-999.0,76,-99.99,,,0.01,Acu-Link.com,2013-03-13 01:09:00,
2013-03-12 21:24:00,33.8,26.7,29.96,WSW,247,1.1,-999.0,75,-99.99,,,0.01,Acu-Link.com,2013-03-13 01:24:00,
2013-03-12 21:39:00,33.8,27.1,29.95,WSW,247,0.0,-999.0,76,-99.99,,,0.01,Acu-Link.com,2013-03-13 01:39:00,
2013-03-12 21:54:00,33.8,27.1,29.95,WSW,247,0.0,-999.0,76,-99.99,,,0.01,Acu-Link.com,2013-03-13 01:54:00,
2013-03-12 22:09:00,33.8,27.4,29.96,WNW,292,0.0,-999.0,77,-99.99,,,0.01,Acu-Link.com,2013-03-13 02:09:00,
2013-03-12 22:24:00,33.8,27.1,29.95,ESE,112,0.0,-999.0,76,-99.99,,,0.01,Acu-Link.com,2013-03-13 02:24:00,
2013-03-12 22:39:00,33.8,27.4,29.95,WSW,247,0.0,-999.0,77,-99.99,,,0.01,Acu-Link.com,2013-03-13 02:39:00,
2013-03-12 22:54:00,32.0,25.6,29.95,SW,225,0.0,-999.0,77,-99.99,,,0.01,Acu-Link.com,2013-03-13 02:54:00,
2013-03-12 23:09:00,32.0,26.2,29.95,SE,135,0.0,-999.0,79,-99.99,,,0.01,Acu-Link.com,2013-03-13 03:09:00,
2013-03-12 23:24:00,32.0,26.5,29.95,South,180,0.0,-999.0,80,-99.99,,,0.01,Acu-Link.com,2013-03-13 03:24:00,
2013-03-12 23:39:00,32.0,27.1,29.94,South,180,1.6,-999.0,82,-99.99,,,0.01,Acu-Link.com,2013-03-13 03:39:00,
2013-03-12 23:55:00,32.0,27.7,29.94,ENE,67,1.1,-999.0,84,-99.99,,,0.01,Acu-Link.com,2013-03-13 03:55:00,